Time;durP1;ratioP1;P1;durP2;ratioP2;P2;SDS_P1;SDS_P2;PMS_P1;PMS_P2;Temp;Humidity;BMP_temperature;BMP_pressure;BME280_temperature;BME280_humidity;BME280_pressure;Samples;Min_cycle;Max_cycle;Signal;HPM_P1;HPM_P2
2022/05/08 00:01:50;;;;;;;0.00;0.00;;;;;;;;;;5074214;28;20540;-56
2022/05/08 00:04:16;;;;;;;4.38;0.60;;;;;;;;;;5076927;28;20016;-55
2022/05/08 00:06:42;;;;;;;0.40;0.40;;;;;;;;;;5073870;28;20017;-54
2022/05/08 00:09:07;;;;;;;0.45;0.45;;;;;;;;;;5071927;28;20032;-56
2022/05/08 00:11:33;;;;;;;0.43;0.43;;;;;;;;;;5070365;28;20032;-55
2022/05/08 00:13:58;;;;;;;0.28;0.28;;;;;;;;;;5073920;28;20027;-55
2022/05/08 00:16:23;;;;;;;1.65;1.17;;;;;;;;;;5073408;28;20066;-57
2022/05/08 00:18:49;;;;;;;0.52;0.52;;;;;;;;;;5073096;28;20031;-54
2022/05/08 00:21:14;;;;;;;1.23;1.15;;;;;;;;;;5073240;28;20381;-55
2022/05/08 00:23:39;;;;;;;1.13;1.13;;;;;;;;;;5073299;28;20020;-57
2022/05/08 00:26:07;;;;;;;0.10;0.10;;;;;;;;;;5072592;28;20106;-58
2022/05/08 00:28:32;;;;;;;0.00;0.00;;;;;;;;;;5070104;28;20104;-56
2022/05/08 00:30:58;;;;;;;0.00;0.00;;;;;;;;;;5073541;28;20469;-57
2022/05/08 00:33:23;;;;;;;1.23;1.17;;;;;;;;;;5073438;28;20031;-57
2022/05/08 00:35:48;;;;;;;0.00;0.00;;;;;;;;;;5071803;28;20334;-56
2022/05/08 00:38:14;;;;;;;2.53;2.40;;;;;;;;;;5070934;28;20021;-57
2022/05/08 00:40:39;;;;;;;0.52;0.52;;;;;;;;;;5071070;28;20032;-56
2022/05/08 00:43:34;;;;;;;0.00;0.00;;;;;;;;;;5070308;28;20024;-57
2022/05/08 00:46:03;;;;;;;1.15;0.20;;;;;;;;;;5054998;28;20518;-58
2022/05/08 00:48:29;;;;;;;2.83;1.58;;;;;;;;;;5070577;28;20082;-58
2022/05/08 00:50:54;;;;;;;0.25;0.25;;;;;;;;;;5064743;28;20037;-58
2022/05/08 00:53:20;;;;;;;0.30;0.30;;;;;;;;;;5067286;28;20338;-57
2022/05/08 00:55:45;;;;;;;0.60;0.60;;;;;;;;;;5067752;28;20350;-57
2022/05/08 00:58:11;;;;;;;1.67;1.58;;;;;;;;;;5068665;28;20085;-56
2022/05/08 01:00:36;;;;;;;3.13;1.83;;;;;;;;;;5068415;28;20565;-57
2022/05/08 01:03:02;;;;;;;1.20;1.13;;;;;;;;;;5071417;28;20461;-59
2022/05/08 01:05:27;;;;;;;0.00;0.00;;;;;;;;;;5071829;28;20052;-58
2022/05/08 01:07:52;;;;;;;4.47;4.28;;;;;;;;;;5071294;28;20032;-60
2022/05/08 01:10:18;;;;;;;0.32;0.32;;;;;;;;;;5071639;28;20068;-56
2022/05/08 01:12:46;;;;;;;1.48;1.17;;;;;;;;;;5072073;28;20051;-56
2022/05/08 01:15:14;;;;;;;0.00;0.00;;;;;;;;;;5068460;28;20061;-53
2022/05/08 01:17:39;;;;;;;0.00;0.00;;;;;;;;;;5072633;28;20385;-49
2022/05/08 01:20:05;;;;;;;0.50;0.50;;;;;;;;;;5070088;28;20021;-52
2022/05/08 01:22:31;;;;;;;1.65;1.17;;;;;;;;;;5071457;28;20111;-56
2022/05/08 01:24:57;;;;;;;0.22;0.22;;;;;;;;;;5073411;28;20485;-56
2022/05/08 01:27:22;;;;;;;0.28;0.28;;;;;;;;;;5072989;28;20051;-57
2022/05/08 01:29:48;;;;;;;1.45;1.25;;;;;;;;;;5073020;28;20032;-56
2022/05/08 01:32:13;;;;;;;1.05;1.05;;;;;;;;;;5076173;28;20017;-55
2022/05/08 01:34:38;;;;;;;0.00;0.00;;;;;;;;;;5076847;28;20084;-57
2022/05/08 01:37:03;;;;;;;3.00;2.38;;;;;;;;;;5055085;28;20029;-57
2022/05/08 01:39:29;;;;;;;0.00;0.00;;;;;;;;;;5072955;28;20031;-56
2022/05/08 01:41:54;;;;;;;2.28;0.88;;;;;;;;;;5076779;28;20032;-55
2022/05/08 01:44:23;;;;;;;2.60;2.40;;;;;;;;;;5076571;28;20069;-58
2022/05/08 01:46:48;;;;;;;1.73;0.60;;;;;;;;;;5076121;28;20020;-59
2022/05/08 01:49:13;;;;;;;1.40;1.33;;;;;;;;;;5066383;28;20491;-57
2022/05/08 01:51:39;;;;;;;0.55;0.55;;;;;;;;;;5076855;28;20023;-58
2022/05/08 01:54:05;;;;;;;2.58;1.77;;;;;;;;;;5069938;28;20021;-57
2022/05/08 01:56:30;;;;;;;0.93;0.93;;;;;;;;;;5076828;28;20013;-56
2022/05/08 01:58:56;;;;;;;0.60;0.50;;;;;;;;;;5076666;28;20016;-57
2022/05/08 02:01:21;;;;;;;1.55;1.25;;;;;;;;;;5076433;28;20369;-57
2022/05/08 02:03:46;;;;;;;1.95;0.73;;;;;;;;;;5085002;28;20364;-59
2022/05/08 02:06:14;;;;;;;0.47;0.47;;;;;;;;;;5084744;28;20111;-59
2022/05/08 02:08:40;;;;;;;3.85;2.28;;;;;;;;;;5076764;28;20111;-59
2022/05/08 02:11:06;;;;;;;0.00;0.00;;;;;;;;;;5075974;28;20447;-58
2022/05/08 02:13:31;;;;;;;1.90;1.90;;;;;;;;;;5076311;28;20454;-58
2022/05/08 02:15:58;;;;;;;1.35;1.13;;;;;;;;;;5076211;28;20023;-57
2022/05/08 02:18:23;;;;;;;0.63;0.63;;;;;;;;;;5072221;28;20450;-58
2022/05/08 02:20:48;;;;;;;0.75;0.75;;;;;;;;;;5076223;28;20116;-59
2022/05/08 02:23:14;;;;;;;3.85;2.78;;;;;;;;;;5075943;28;20025;-60
2022/05/08 02:25:39;;;;;;;6.07;2.28;;;;;;;;;;5076304;28;20069;-59
2022/05/08 02:28:04;;;;;;;0.25;0.25;;;;;;;;;;5076472;28;20458;-58
2022/05/08 02:30:30;;;;;;;0.10;0.10;;;;;;;;;;5076292;28;20028;-59
2022/05/08 02:32:55;;;;;;;0.70;0.70;;;;;;;;;;5076007;28;20113;-58
2022/05/08 02:35:21;;;;;;;4.68;2.13;;;;;;;;;;5075082;28;20036;-57
2022/05/08 02:37:48;;;;;;;0.73;0.73;;;;;;;;;;5063284;28;20076;-57
2022/05/08 02:40:14;;;;;;;1.00;0.45;;;;;;;;;;5065442;28;20421;-58
2022/05/08 02:42:39;;;;;;;0.28;0.28;;;;;;;;;;5073638;28;20054;-56
2022/05/08 02:45:05;;;;;;;1.15;1.15;;;;;;;;;;5075875;28;20401;-59
2022/05/08 02:47:34;;;;;;;0.00;0.00;;;;;;;;;;5075405;28;20376;-55
2022/05/08 02:50:00;;;;;;;0.00;0.00;;;;;;;;;;5074918;28;20029;-51
2022/05/08 02:52:25;;;;;;;0.17;0.17;;;;;;;;;;5075200;28;20568;-58
2022/05/08 02:54:51;;;;;;;0.38;0.38;;;;;;;;;;5074312;28;20144;-59
2022/05/08 03:00:01;;;;;;;15.85;1.73;;;;;;;;;;5075415;28;20487;-57
2022/05/08 03:02:26;;;;;;;1.45;0.80;;;;;;;;;;5075131;28;20099;-58
2022/05/08 03:04:51;;;;;;;2.25;1.58;;;;;;;;;;5074823;28;20031;-56
2022/05/08 03:07:16;;;;;;;0.47;0.47;;;;;;;;;;5070195;28;20110;-57
2022/05/08 03:09:42;;;;;;;1.45;1.40;;;;;;;;;;5071318;28;20052;-53
2022/05/08 03:12:08;;;;;;;0.28;0.28;;;;;;;;;;5073594;28;20053;-57
2022/05/08 03:14:33;;;;;;;0.90;0.90;;;;;;;;;;5073223;28;20016;-57
2022/05/08 03:16:58;;;;;;;0.10;0.10;;;;;;;;;;5052646;28;20023;-57
2022/05/08 03:19:25;;;;;;;0.35;0.35;;;;;;;;;;5070604;28;20384;-57
2022/05/08 03:21:51;;;;;;;0.00;0.00;;;;;;;;;;5075077;28;20035;-56
2022/05/08 03:24:16;;;;;;;0.22;0.22;;;;;;;;;;5075063;28;20016;-59
2022/05/08 03:26:42;;;;;;;1.00;1.00;;;;;;;;;;5075013;28;20467;-55
2022/05/08 03:29:07;;;;;;;0.00;0.00;;;;;;;;;;5074860;28;20033;-56
2022/05/08 03:31:33;;;;;;;0.00;0.00;;;;;;;;;;5075351;28;20017;-56
2022/05/08 03:33:58;;;;;;;0.38;0.22;;;;;;;;;;5075030;28;20052;-56
2022/05/08 03:36:23;;;;;;;0.00;0.00;;;;;;;;;;5074348;28;20031;-56
2022/05/08 03:38:49;;;;;;;0.05;0.05;;;;;;;;;;5072153;28;20446;-57
2022/05/08 03:41:15;;;;;;;0.10;0.10;;;;;;;;;;5071107;28;20051;-54
2022/05/08 03:43:41;;;;;;;0.47;0.43;;;;;;;;;;5068641;28;20111;-53
2022/05/08 03:46:06;;;;;;;0.75;0.73;;;;;;;;;;5072113;28;20060;-57
2022/05/08 03:48:31;;;;;;;0.20;0.20;;;;;;;;;;5074028;28;20035;-56
2022/05/08 03:50:56;;;;;;;0.00;0.00;;;;;;;;;;5067700;28;20066;-52
2022/05/08 03:53:22;;;;;;;0.70;0.70;;;;;;;;;;5068215;28;20017;-54
2022/05/08 03:55:47;;;;;;;0.45;0.45;;;;;;;;;;5071309;28;20029;-57
2022/05/08 03:58:12;;;;;;;0.00;0.00;;;;;;;;;;5071920;28;20028;-57
2022/05/08 04:00:37;;;;;;;1.55;0.52;;;;;;;;;;5071643;28;20055;-56
2022/05/08 04:03:03;;;;;;;0.77;0.77;;;;;;;;;;5068744;28;20373;-56
2022/05/08 04:05:29;;;;;;;1.77;1.70;;;;;;;;;;5071637;28;20025;-58
2022/05/08 04:07:54;;;;;;;0.52;0.52;;;;;;;;;;5068267;28;20385;-57
2022/05/08 04:10:19;;;;;;;0.00;0.00;;;;;;;;;;5072655;28;20032;-58
2022/05/08 04:12:45;;;;;;;1.75;1.65;;;;;;;;;;5072964;28;20013;-57
2022/05/08 04:16:15;;;;;;;2.15;1.98;;;;;;;;;;5073478;28;20024;-56
2022/05/08 04:17:55;;;;;;;0.00;0.00;;;;;;;;;;5073453;28;20046;-53
2022/05/08 04:20:20;;;;;;;2.25;2.15;;;;;;;;;;5073571;28;20016;-55
2022/05/08 04:25:29;;;;;;;3.30;3.00;;;;;;;;;;5064235;28;20505;-54
2022/05/08 04:27:54;;;;;;;1.95;1.08;;;;;;;;;;5073710;28;20017;-54
2022/05/08 04:30:20;;;;;;;0.80;0.40;;;;;;;;;;5073867;28;20385;-54
2022/05/08 04:32:45;;;;;;;0.52;0.52;;;;;;;;;;5069006;28;20021;-58
2022/05/08 04:35:10;;;;;;;1.33;0.95;;;;;;;;;;5073312;28;20064;-57
2022/05/08 04:37:35;;;;;;;1.23;0.88;;;;;;;;;;5073594;28;20029;-57
2022/05/08 04:40:00;;;;;;;0.00;0.00;;;;;;;;;;5073611;28;20017;-58
2022/05/08 04:42:26;;;;;;;0.20;0.20;;;;;;;;;;5073720;28;20099;-57
2022/05/08 04:44:51;;;;;;;0.05;0.05;;;;;;;;;;5073803;28;20035;-55
2022/05/08 04:47:16;;;;;;;0.30;0.30;;;;;;;;;;5073264;28;20025;-56
2022/05/08 04:49:42;;;;;;;0.10;0.10;;;;;;;;;;5073473;28;20021;-57
2022/05/08 04:52:07;;;;;;;0.03;0.03;;;;;;;;;;5073713;28;20016;-58
2022/05/08 04:54:32;;;;;;;0.00;0.00;;;;;;;;;;5073286;28;20015;-58
2022/05/08 04:56:57;;;;;;;1.58;1.58;;;;;;;;;;5073003;28;20016;-58
2022/05/08 04:59:22;;;;;;;0.00;0.00;;;;;;;;;;5068782;28;20060;-58
2022/05/08 05:01:49;;;;;;;0.00;0.00;;;;;;;;;;5070599;28;20043;-58
2022/05/08 05:04:14;;;;;;;1.55;1.45;;;;;;;;;;5071235;28;20457;-58
2022/05/08 05:06:42;;;;;;;0.40;0.40;;;;;;;;;;5069469;28;20020;-57
2022/05/08 05:09:07;;;;;;;0.80;0.80;;;;;;;;;;5066028;28;20432;-58
2022/05/08 05:11:32;;;;;;;0.00;0.00;;;;;;;;;;5062710;28;20017;-58
2022/05/08 05:13:57;;;;;;;1.83;1.60;;;;;;;;;;5067898;28;20017;-57
2022/05/08 05:16:23;;;;;;;0.63;0.63;;;;;;;;;;5072350;28;20013;-59
2022/05/08 05:18:48;;;;;;;3.83;1.88;;;;;;;;;;5070065;28;20109;-58
2022/05/08 05:21:13;;;;;;;0.00;0.00;;;;;;;;;;5073137;28;20012;-59
2022/05/08 05:23:38;;;;;;;0.00;0.00;;;;;;;;;;5073724;28;20451;-60
2022/05/08 05:26:03;;;;;;;0.22;0.22;;;;;;;;;;5073143;28;20412;-59
2022/05/08 05:28:29;;;;;;;1.40;0.95;;;;;;;;;;5073002;28;20024;-57
2022/05/08 05:30:55;;;;;;;1.95;1.85;;;;;;;;;;5073493;28;20063;-54
2022/05/08 05:33:20;;;;;;;2.85;1.77;;;;;;;;;;5073353;28;20036;-55
2022/05/08 05:35:45;;;;;;;0.60;0.60;;;;;;;;;;5076155;28;20044;-57
2022/05/08 05:38:10;;;;;;;0.52;0.52;;;;;;;;;;5073147;28;20024;-56
2022/05/08 05:40:35;;;;;;;7.40;5.85;;;;;;;;;;5073777;28;20028;-58
2022/05/08 05:43:01;;;;;;;0.57;0.57;;;;;;;;;;5073181;28;20086;-59
2022/05/08 05:45:26;;;;;;;0.43;0.43;;;;;;;;;;5072155;28;20052;-58
2022/05/08 05:47:54;;;;;;;0.47;0.38;;;;;;;;;;5070077;28;20452;-58
2022/05/08 05:50:20;;;;;;;0.85;0.85;;;;;;;;;;5066939;28;20035;-58
2022/05/08 05:52:45;;;;;;;0.00;0.00;;;;;;;;;;5069176;28;20024;-57
2022/05/08 05:55:11;;;;;;;0.00;0.00;;;;;;;;;;5073020;28;20024;-59
2022/05/08 05:57:37;;;;;;;0.00;0.00;;;;;;;;;;5071745;28;20125;-59
2022/05/08 06:00:06;;;;;;;3.50;2.03;;;;;;;;;;5068802;28;20039;-58
2022/05/08 06:02:31;;;;;;;1.15;1.15;;;;;;;;;;5072022;28;20028;-57
2022/05/08 06:04:56;;;;;;;1.55;1.45;;;;;;;;;;5050069;28;20024;-58
2022/05/08 06:07:22;;;;;;;0.00;0.00;;;;;;;;;;5066909;28;20392;-56
2022/05/08 06:09:47;;;;;;;0.80;0.80;;;;;;;;;;5067426;28;20508;-58
2022/05/08 06:12:12;;;;;;;0.10;0.10;;;;;;;;;;5070137;28;20021;-57
2022/05/08 06:14:37;;;;;;;0.45;0.45;;;;;;;;;;5067058;28;20310;-55
2022/05/08 06:17:03;;;;;;;3.72;3.05;;;;;;;;;;5068376;28;20381;-57
2022/05/08 06:19:31;;;;;;;2.85;2.65;;;;;;;;;;5073303;28;20024;-57
2022/05/08 06:21:56;;;;;;;4.05;3.75;;;;;;;;;;5073260;28;20021;-57
2022/05/08 06:24:21;;;;;;;0.47;0.47;;;;;;;;;;5064486;28;20025;-53
2022/05/08 06:26:46;;;;;;;0.30;0.30;;;;;;;;;;5073073;28;20027;-58
2022/05/08 06:29:12;;;;;;;1.42;1.33;;;;;;;;;;5073199;28;20067;-58
2022/05/08 06:31:37;;;;;;;0.30;0.30;;;;;;;;;;5073341;28;20023;-58
2022/05/08 06:34:02;;;;;;;0.65;0.65;;;;;;;;;;5073990;28;20036;-58
2022/05/08 06:36:28;;;;;;;2.10;1.95;;;;;;;;;;5057344;28;20038;-58
2022/05/08 06:38:53;;;;;;;0.00;0.00;;;;;;;;;;5075208;28;20147;-56
2022/05/08 06:41:19;;;;;;;2.00;1.90;;;;;;;;;;5075379;28;20043;-55
2022/05/08 06:43:44;;;;;;;0.73;0.60;;;;;;;;;;5056259;28;20096;-54
2022/05/08 06:46:10;;;;;;;0.90;0.90;;;;;;;;;;5074356;28;20017;-55
2022/05/08 06:48:35;;;;;;;0.45;0.45;;;;;;;;;;5071301;28;20035;-53
2022/05/08 06:51:02;;;;;;;1.20;1.13;;;;;;;;;;5071246;28;20020;-51
2022/05/08 06:53:27;;;;;;;1.08;0.88;;;;;;;;;;5056390;28;20017;-53
2022/05/08 06:55:52;;;;;;;1.55;1.45;;;;;;;;;;5070049;28;20067;-53
2022/05/08 06:58:20;;;;;;;3.45;2.63;;;;;;;;;;5073469;28;20422;-52
2022/05/08 07:03:29;;;;;;;0.63;0.47;;;;;;;;;;5070599;28;20110;-52
2022/05/08 07:05:56;;;;;;;0.25;0.20;;;;;;;;;;5070750;28;20430;-53
2022/05/08 07:08:22;;;;;;;0.93;0.93;;;;;;;;;;5071581;28;20370;-54
2022/05/08 07:10:48;;;;;;;1.75;1.65;;;;;;;;;;5068802;28;20024;-54
2022/05/08 07:13:15;;;;;;;0.00;0.00;;;;;;;;;;5072763;28;20032;-53
2022/05/08 07:15:40;;;;;;;0.00;0.00;;;;;;;;;;5074256;28;20397;-55
2022/05/08 07:18:05;;;;;;;0.30;0.30;;;;;;;;;;5071257;28;20017;-53
2022/05/08 07:20:31;;;;;;;0.00;0.00;;;;;;;;;;5070341;28;20067;-55
2022/05/08 07:22:56;;;;;;;2.67;1.85;;;;;;;;;;5070259;28;20100;-53
2022/05/08 07:25:21;;;;;;;0.00;0.00;;;;;;;;;;5072345;28;20024;-53
2022/05/08 07:27:46;;;;;;;0.00;0.00;;;;;;;;;;5073023;28;20035;-53
2022/05/08 07:30:12;;;;;;;1.42;1.38;;;;;;;;;;5071089;28;20028;-52
2022/05/08 07:32:37;;;;;;;1.08;0.75;;;;;;;;;;5072204;28;20055;-49
2022/05/08 07:37:46;;;;;;;1.25;1.15;;;;;;;;;;5070644;28;20492;-55
2022/05/08 07:40:12;;;;;;;6.20;3.10;;;;;;;;;;5071308;28;20044;-53
2022/05/08 07:42:37;;;;;;;0.00;0.00;;;;;;;;;;5068436;28;20044;-52
2022/05/08 07:45:03;;;;;;;4.23;1.40;;;;;;;;;;5072532;28;20025;-55
2022/05/08 07:47:28;;;;;;;2.65;2.05;;;;;;;;;;5071327;28;20246;-53
2022/05/08 07:49:54;;;;;;;3.65;1.75;;;;;;;;;;5070867;28;20032;-52
2022/05/08 07:52:19;;;;;;;0.82;0.63;;;;;;;;;;5071443;28;20077;-52
2022/05/08 07:54:44;;;;;;;1.67;1.45;;;;;;;;;;5072882;28;20156;-54
2022/05/08 07:57:10;;;;;;;0.00;0.00;;;;;;;;;;5063551;28;20539;-53
2022/05/08 07:59:35;;;;;;;0.32;0.32;;;;;;;;;;5070349;28;20013;-52
2022/05/08 08:02:00;;;;;;;0.38;0.38;;;;;;;;;;5069920;28;20016;-54
2022/05/08 08:04:26;;;;;;;14.05;0.90;;;;;;;;;;5070106;28;20016;-54
2022/05/08 08:06:51;;;;;;;0.63;0.63;;;;;;;;;;5071986;28;20108;-53
2022/05/08 08:09:16;;;;;;;12.98;3.40;;;;;;;;;;5071953;28;20442;-48
2022/05/08 08:11:42;;;;;;;0.00;0.00;;;;;;;;;;5072290;28;20023;-51
2022/05/08 08:14:08;;;;;;;1.83;1.55;;;;;;;;;;5071938;28;20023;-51
2022/05/08 08:16:33;;;;;;;0.22;0.22;;;;;;;;;;5071840;28;20096;-53
2022/05/08 08:19:00;;;;;;;6.05;5.57;;;;;;;;;;5068312;28;20459;-54
2022/05/08 08:21:25;;;;;;;0.00;0.00;;;;;;;;;;5071385;28;20028;-55
2022/05/08 08:23:51;;;;;;;0.20;0.20;;;;;;;;;;5070903;28;20025;-52
2022/05/08 08:26:17;;;;;;;2.00;1.90;;;;;;;;;;5070191;28;20099;-54
2022/05/08 08:28:42;;;;;;;2.03;1.83;;;;;;;;;;5070083;28;20048;-53
2022/05/08 08:31:08;;;;;;;0.35;0.35;;;;;;;;;;5070979;28;20381;-54
2022/05/08 08:33:36;;;;;;;0.95;0.95;;;;;;;;;;5069416;28;20012;-50
2022/05/08 08:36:01;;;;;;;2.17;0.73;;;;;;;;;;5069643;28;20059;-55
2022/05/08 08:38:28;;;;;;;0.00;0.00;;;;;;;;;;5072435;28;20458;-52
2022/05/08 08:40:54;;;;;;;0.20;0.20;;;;;;;;;;5071093;28;20024;-53
2022/05/08 08:43:19;;;;;;;0.15;0.15;;;;;;;;;;5070666;28;20031;-51
2022/05/08 08:48:30;;;;;;;1.00;0.98;;;;;;;;;;5062365;28;20087;-55
2022/05/08 08:50:58;;;;;;;0.00;0.00;;;;;;;;;;5068511;28;20087;-58
2022/05/08 08:53:24;;;;;;;2.95;0.88;;;;;;;;;;5064646;28;20051;-58
2022/05/08 08:55:50;;;;;;;2.25;1.33;;;;;;;;;;5059356;28;20024;-59
2022/05/08 08:58:19;;;;;;;0.60;0.60;;;;;;;;;;5053801;28;20095;-57
2022/05/08 09:00:49;;;;;;;3.55;1.17;;;;;;;;;;5065270;28;20066;-60
2022/05/08 09:03:18;;;;;;;3.03;2.78;;;;;;;;;;5066329;28;20055;-56
2022/05/08 09:05:44;;;;;;;0.20;0.20;;;;;;;;;;5068480;28;20027;-60
2022/05/08 09:08:23;;;;;;;0.22;0.22;;;;;;;;;;5066897;28;20036;-60
2022/05/08 09:10:49;;;;;;;0.63;0.63;;;;;;;;;;5067309;28;20473;-61
2022/05/08 09:13:14;;;;;;;0.35;0.35;;;;;;;;;;5066993;28;20047;-60
2022/05/08 09:15:39;;;;;;;0.93;0.93;;;;;;;;;;5064406;28;20029;-58
2022/05/08 09:18:05;;;;;;;0.30;0.30;;;;;;;;;;5066156;28;20021;-57
2022/05/08 09:20:39;;;;;;;0.10;0.10;;;;;;;;;;5067227;28;20039;-59
2022/05/08 09:23:04;;;;;;;0.70;0.60;;;;;;;;;;5069876;28;20477;-60
2022/05/08 09:25:45;;;;;;;0.00;0.00;;;;;;;;;;5065805;28;20024;-60
2022/05/08 09:28:29;;;;;;;0.20;0.20;;;;;;;;;;5069169;28;20098;-61
2022/05/08 09:31:09;;;;;;;0.00;0.00;;;;;;;;;;5066094;28;20350;-62
2022/05/08 09:33:35;;;;;;;1.17;1.17;;;;;;;;;;5066160;28;20032;-61
2022/05/08 09:36:05;;;;;;;0.00;0.00;;;;;;;;;;5063433;28;20040;-62
2022/05/08 09:38:49;;;;;;;0.32;0.32;;;;;;;;;;5066467;28;20127;-62
2022/05/08 09:41:17;;;;;;;0.15;0.15;;;;;;;;;;5052729;28;20020;-62
2022/05/08 09:43:42;;;;;;;1.35;1.33;;;;;;;;;;5068407;28;20082;-62
2022/05/08 09:46:08;;;;;;;0.03;0.03;;;;;;;;;;5061825;28;20021;-64
2022/05/08 09:48:33;;;;;;;0.00;0.00;;;;;;;;;;5066137;28;20024;-60
2022/05/08 09:51:09;;;;;;;1.60;1.60;;;;;;;;;;5065854;28;20453;-59
2022/05/08 09:53:35;;;;;;;0.75;0.75;;;;;;;;;;5072942;28;20079;-59
2022/05/08 09:56:02;;;;;;;0.00;0.00;;;;;;;;;;5068589;28;20028;-58
2022/05/08 09:58:28;;;;;;;2.85;1.52;;;;;;;;;;5050686;28;20082;-57
2022/05/08 10:00:54;;;;;;;2.20;1.95;;;;;;;;;;5071021;28;20028;-61
2022/05/08 10:03:19;;;;;;;0.45;0.45;;;;;;;;;;5068159;28;20421;-58
2022/05/08 10:05:45;;;;;;;0.00;0.00;;;;;;;;;;5071209;28;20048;-59
2022/05/08 10:08:15;;;;;;;1.60;1.02;;;;;;;;;;5070699;28;20033;-58
2022/05/08 10:16:43;;;;;;;1.83;1.73;;;;;;;;;;5071456;28;20027;-57
2022/05/08 10:19:37;;;;;;;0.20;0.20;;;;;;;;;;5069414;28;20123;-57
2022/05/08 10:22:03;;;;;;;1.55;1.50;;;;;;;;;;5069866;28;20030;-55
2022/05/08 10:24:32;;;;;;;0.08;0.08;;;;;;;;;;5071074;28;20527;-58
2022/05/08 10:27:07;;;;;;;0.30;0.30;;;;;;;;;;5070830;28;20039;-56
2022/05/08 10:29:33;;;;;;;3.08;1.92;;;;;;;;;;5070521;28;20093;-56
2022/05/08 10:31:58;;;;;;;0.13;0.13;;;;;;;;;;5069143;28;20029;-56
2022/05/08 10:34:37;;;;;;;0.00;0.00;;;;;;;;;;5070322;28;20033;-57
2022/05/08 10:37:12;;;;;;;0.00;0.00;;;;;;;;;;5070403;28;20016;-51
2022/05/08 10:39:47;;;;;;;2.72;1.40;;;;;;;;;;5069209;28;20032;-55
2022/05/08 10:42:24;;;;;;;0.15;0.15;;;;;;;;;;5065186;28;20052;-56
2022/05/08 10:44:49;;;;;;;0.00;0.00;;;;;;;;;;5069574;28;20099;-56
2022/05/08 10:47:42;;;;;;;0.13;0.13;;;;;;;;;;5069900;28;20112;-55
2022/05/08 10:50:11;;;;;;;0.40;0.40;;;;;;;;;;5061702;28;20033;-57
2022/05/08 10:52:41;;;;;;;0.73;0.65;;;;;;;;;;5067914;28;20020;-58
2022/05/08 10:55:12;;;;;;;1.15;1.02;;;;;;;;;;5064714;28;20470;-57
2022/05/08 10:57:38;;;;;;;1.00;1.00;;;;;;;;;;5068947;28;20013;-57
2022/05/08 11:00:05;;;;;;;1.63;1.52;;;;;;;;;;5066728;28;20603;-56
2022/05/08 11:02:40;;;;;;;1.08;1.08;;;;;;;;;;5063111;28;20025;-57
2022/05/08 11:05:09;;;;;;;0.10;0.10;;;;;;;;;;5063259;28;20033;-53
2022/05/08 11:07:35;;;;;;;0.00;0.00;;;;;;;;;;5050019;28;20393;-56
2022/05/08 11:10:00;;;;;;;0.75;0.30;;;;;;;;;;5048764;28;20037;-52
2022/05/08 11:12:25;;;;;;;0.00;0.00;;;;;;;;;;5054317;28;20024;-58
2022/05/08 11:15:05;;;;;;;1.27;1.23;;;;;;;;;;5061047;28;20028;-57
2022/05/08 11:17:30;;;;;;;0.80;0.20;;;;;;;;;;5065736;28;20016;-56
2022/05/08 11:19:58;;;;;;;0.20;0.20;;;;;;;;;;5067758;28;20032;-56
2022/05/08 11:22:23;;;;;;;0.65;0.63;;;;;;;;;;5065764;28;20020;-57
2022/05/08 11:24:49;;;;;;;1.10;1.10;;;;;;;;;;5065048;28;20016;-57
2022/05/08 11:27:14;;;;;;;4.30;1.83;;;;;;;;;;5066180;28;20036;-57
2022/05/08 11:29:48;;;;;;;1.50;1.33;;;;;;;;;;5069249;28;20032;-57
2022/05/08 11:38:01;;;;;;;0.60;0.30;;;;;;;;;;5069081;28;20421;-58
2022/05/08 11:40:27;;;;;;;0.82;0.82;;;;;;;;;;5067489;28;20021;-57
2022/05/08 11:42:52;;;;;;;0.10;0.10;;;;;;;;;;5066656;28;20024;-57
2022/05/08 11:45:17;;;;;;;4.40;3.47;;;;;;;;;;5067089;28;20374;-57
2022/05/08 11:47:48;;;;;;;0.35;0.35;;;;;;;;;;5069057;28;20056;-58
2022/05/08 11:50:14;;;;;;;0.28;0.28;;;;;;;;;;5065508;28;20059;-56
2022/05/08 11:52:39;;;;;;;0.10;0.10;;;;;;;;;;5063344;28;20485;-57
2022/05/08 11:55:04;;;;;;;0.10;0.10;;;;;;;;;;5064957;28;20504;-57
2022/05/08 11:57:39;;;;;;;0.52;0.45;;;;;;;;;;5069235;28;20033;-56
2022/05/08 12:00:06;;;;;;;0.00;0.00;;;;;;;;;;5063667;28;20466;-58
2022/05/08 12:02:38;;;;;;;0.65;0.65;;;;;;;;;;5067728;28;20043;-57
2022/05/08 12:05:03;;;;;;;1.05;1.02;;;;;;;;;;5064417;28;20408;-57
2022/05/08 12:07:37;;;;;;;3.72;2.55;;;;;;;;;;5066736;28;20025;-56
2022/05/08 12:10:02;;;;;;;1.00;1.00;;;;;;;;;;5065807;28;20056;-57
2022/05/08 12:12:29;;;;;;;0.22;0.22;;;;;;;;;;5064216;28;20071;-54
2022/05/08 12:15:06;;;;;;;1.02;1.02;;;;;;;;;;5050539;28;20075;-56
2022/05/08 12:17:41;;;;;;;0.73;0.43;;;;;;;;;;5064771;28;20033;-58
2022/05/08 12:20:17;;;;;;;5.15;1.75;;;;;;;;;;5066859;28;20111;-58
2022/05/08 12:22:44;;;;;;;1.27;1.15;;;;;;;;;;5060638;28;20107;-58
2022/05/08 12:25:10;;;;;;;0.00;0.00;;;;;;;;;;5068818;28;20082;-58
2022/05/08 12:27:35;;;;;;;6.95;2.50;;;;;;;;;;5064394;28;20032;-58
2022/05/08 12:30:02;;;;;;;1.30;1.20;;;;;;;;;;5065132;28;20039;-58
2022/05/08 12:32:27;;;;;;;2.47;2.28;;;;;;;;;;5068523;28;20016;-58
2022/05/08 12:34:57;;;;;;;1.48;1.40;;;;;;;;;;5062901;28;20044;-57
2022/05/08 12:37:23;;;;;;;1.73;1.63;;;;;;;;;;5066559;28;20025;-58
2022/05/08 12:39:48;;;;;;;0.52;0.50;;;;;;;;;;5067560;28;20017;-58
2022/05/08 12:42:13;;;;;;;1.50;1.40;;;;;;;;;;5060951;28;20552;-57
2022/05/08 12:44:39;;;;;;;2.05;0.50;;;;;;;;;;5066353;28;20078;-56
2022/05/08 12:47:08;;;;;;;1.48;1.35;;;;;;;;;;5064592;28;20028;-57
2022/05/08 12:49:35;;;;;;;0.43;0.35;;;;;;;;;;5065897;28;20051;-57
2022/05/08 12:52:00;;;;;;;0.25;0.25;;;;;;;;;;5066786;28;20025;-56
2022/05/08 12:54:25;;;;;;;0.88;0.88;;;;;;;;;;5063813;28;20023;-55
2022/05/08 12:56:51;;;;;;;0.88;0.88;;;;;;;;;;5048726;28;20111;-57
2022/05/08 13:02:00;;;;;;;0.80;0.80;;;;;;;;;;5064904;28;20038;-58
2022/05/08 13:04:26;;;;;;;0.20;0.20;;;;;;;;;;5068729;28;20457;-55
2022/05/08 13:06:51;;;;;;;0.00;0.00;;;;;;;;;;5067723;28;20434;-58
2022/05/08 13:09:17;;;;;;;0.38;0.38;;;;;;;;;;5067593;28;20499;-58
2022/05/08 13:11:42;;;;;;;2.63;1.65;;;;;;;;;;5069173;28;20028;-57
2022/05/08 13:14:07;;;;;;;0.08;0.08;;;;;;;;;;5065983;28;20366;-55
2022/05/08 13:16:32;;;;;;;0.93;0.93;;;;;;;;;;5067955;28;20438;-52
2022/05/08 13:18:58;;;;;;;4.30;1.20;;;;;;;;;;5066369;28;20020;-56
2022/05/08 13:21:23;;;;;;;2.25;1.05;;;;;;;;;;5070740;28;20023;-53
2022/05/08 13:23:49;;;;;;;1.05;1.02;;;;;;;;;;5069808;28;20033;-58
2022/05/08 13:26:15;;;;;;;0.00;0.00;;;;;;;;;;5068806;28;20016;-53
2022/05/08 13:28:40;;;;;;;0.52;0.52;;;;;;;;;;5069309;28;20017;-57
2022/05/08 13:31:05;;;;;;;13.82;4.05;;;;;;;;;;5072962;28;20031;-59
2022/05/08 13:33:31;;;;;;;0.32;0.32;;;;;;;;;;5073102;28;20044;-60
2022/05/08 13:35:56;;;;;;;0.93;0.93;;;;;;;;;;5072045;28;20120;-57
2022/05/08 13:38:23;;;;;;;0.00;0.00;;;;;;;;;;5072791;28;20043;-61
2022/05/08 13:40:51;;;;;;;0.00;0.00;;;;;;;;;;5072968;28;20023;-59
2022/05/08 13:43:16;;;;;;;0.00;0.00;;;;;;;;;;5072547;28;20033;-60
2022/05/08 13:45:43;;;;;;;0.00;0.00;;;;;;;;;;5074100;28;20016;-59
2022/05/08 13:48:08;;;;;;;0.00;0.00;;;;;;;;;;5069662;28;20025;-58
2022/05/08 13:50:34;;;;;;;0.00;0.00;;;;;;;;;;5065615;28;20526;-56
2022/05/08 13:52:59;;;;;;;0.00;0.00;;;;;;;;;;5072884;28;20025;-56
2022/05/08 13:55:24;;;;;;;0.13;0.13;;;;;;;;;;5066943;28;20112;-53
2022/05/08 13:57:54;;;;;;;0.30;0.30;;;;;;;;;;5072364;28;20032;-55
2022/05/08 14:00:20;;;;;;;;;;;;;;;;;;5073181;28;20381;-55
2022/05/08 14:02:45;;;;;;;0.95;0.95;;;;;;;;;;5072880;28;19909;-53
2022/05/08 14:05:11;;;;;;;0.75;0.75;;;;;;;;;;5071945;28;20031;-54
2022/05/08 14:07:36;;;;;;;1.52;1.52;;;;;;;;;;5071796;28;20020;-54
2022/05/08 14:10:07;;;;;;;8.77;2.88;;;;;;;;;;5072241;28;20025;-57
2022/05/08 14:12:33;;;;;;;0.75;0.73;;;;;;;;;;5053805;28;20028;-55
2022/05/08 14:14:58;;;;;;;2.28;1.63;;;;;;;;;;5072646;28;20374;-56
2022/05/08 14:17:23;;;;;;;0.85;0.85;;;;;;;;;;5054488;28;20039;-55
2022/05/08 14:19:48;;;;;;;1.83;1.73;;;;;;;;;;5071006;28;20020;-58
2022/05/08 14:22:13;;;;;;;0.73;0.73;;;;;;;;;;5069816;28;20070;-56
2022/05/08 14:24:40;;;;;;;1.35;0.57;;;;;;;;;;5071648;28;20207;-57
2022/05/08 14:27:08;;;;;;;0.00;0.00;;;;;;;;;;5071708;28;20096;-57
2022/05/08 14:29:33;;;;;;;1.92;1.85;;;;;;;;;;5071815;28;20098;-58
2022/05/08 14:37:26;;;;;;;3.53;3.30;;;;;;;;;;5067553;28;20090;-61
2022/05/08 14:39:52;;;;;;;1.63;1.52;;;;;;;;;;5072142;28;20021;-62
2022/05/08 14:42:17;;;;;;;1.85;1.75;;;;;;;;;;5073151;28;20469;-60
2022/05/08 14:44:42;;;;;;;1.73;1.63;;;;;;;;;;5056782;28;20025;-58
2022/05/08 14:47:07;;;;;;;2.83;1.30;;;;;;;;;;5071011;28;20076;-59
2022/05/08 14:49:33;;;;;;;2.15;1.92;;;;;;;;;;5074256;28;20056;-61
2022/05/08 14:51:58;;;;;;;2.38;1.25;;;;;;;;;;5072269;28;20017;-60
2022/05/08 14:54:23;;;;;;;2.10;2.00;;;;;;;;;;5073125;28;20074;-62
2022/05/08 14:56:48;;;;;;;0.10;0.10;;;;;;;;;;5072886;28;20016;-60
2022/05/08 14:59:14;;;;;;;0.70;0.70;;;;;;;;;;5070304;28;20484;-61
2022/05/08 15:01:39;;;;;;;0.00;0.00;;;;;;;;;;5050877;28;20037;-60
2022/05/08 15:04:04;;;;;;;0.00;0.00;;;;;;;;;;5071824;28;20473;-62
2022/05/08 15:06:29;;;;;;;0.70;0.70;;;;;;;;;;5071890;28;20389;-59
2022/05/08 15:08:54;;;;;;;1.17;1.17;;;;;;;;;;5069898;28;20079;-60
2022/05/08 15:11:20;;;;;;;0.00;0.00;;;;;;;;;;5069646;28;20048;-61
2022/05/08 15:13:45;;;;;;;0.10;0.10;;;;;;;;;;5069685;28;20521;-60